Turners Falls, MA (01349)

10:07 PM EDT on May 27, 2015 (GMT -0400)
Montague Center - House Of Pie | | Change Station
CLOSE
Current Station
Personal Weather Station
Location: Montague, MA
Elevation: 325 ft
Nearby Weather Stations
Active Advisory: Severe Thunderstorm Watch Active Notice: Local Storm Report

Elev 325 ft 42.54 °N, 72.54 °W | Updated 37 seconds ago

Rain
Rain
67.4 °F
Feels Like 67.4 °F
N
3.0
Wind Variable Wind from SE
Gusts 7.0 mph

Today
High -- | Low -- °F
--% Chance of Precip.
Yesterday
High -- | Low -- °F
Precip. -- in
5:18 AM 8:16 PM
Waxing Gibbous, 72% visible
Pressure 30.12 in
Visibility 9.0 miles
Clouds Few 12000 ft
Dew Point 64 °F
Humidity 89%
Rainfall 0.30 in
Snow Depth Not available.
UV 0.0 out of 12
Pollen 9.10 out of 12
Air Quality Not available.
Flu Activity Local Activity
METAR KORE 280152Z AUTO 16004KT 9SM -RA FEW120 19/19 A3012 RMK AO2 SLP200 P0010 T01940189

More Conditions Fewer Conditions

Pressure 30.12 in
Visibility 9.0 miles
Clouds Few 12000 ft
Dew Point 64 °F
Humidity 89%
Rainfall 0.30 in
Snow Depth Not available.
UV 0.0 out of 12
Pollen 9.10 out of 12
Air Quality Not available.
Flu Activity Local Activity
METAR KORE 280152Z AUTO 16004KT 9SM -RA FEW120 19/19 A3012 RMK AO2 SLP200 P0010 T01940189

More Conditions Fewer Conditions

10-Day Weather Forecast

Almanac

Astronomy

May. 27, 2015 Rise Set
Actual Time
Civil Twilight
Nautical Twilight
Astronomical Twilight
Moon
Length of Visible Light
Length of Day
Tomorrow will be .
, % of the Moon is Illuminated

Today's Extremes

State Highs State Lows

Community

WunderPhotos

Upload Photos

1,824,857 photos uploaded!

WunderBlogs® & News

Nearby

Air Quality

  Air Quality AQ Index Pollutant
Not available.

Snow Depth

Station Depth Elevation

Earthquake Activity

City Distance Mag. Time & Date
Minimum magnitude displayed is 2.5.

Coastal Water Temperatures

Place Temperature

Stations

Nearby Weather Stations

Station Location Temp. Windchill Dew Point Humidity Wind Precip. Elev Updated Type
                   
Severe Thunderstorm Watch
Statement as of 8:21 PM EDT on May 27, 2015


The National Weather Service has cancelled Severe Thunderstorm
Watch 232 for the following areas

In Connecticut this cancels 3 counties

In northern Connecticut

Hartford Tolland Windham

In Massachusetts this cancels 4 counties

In central Massachusetts

Worcester

In western Massachusetts

Franklin Hampden Hampshire

This includes the cities of... Fitchburg... Greenfield... Hartford...
Northampton... Putnam... Springfield... Union... Vernon...
Willimantic and Worcester.


Dunten